createdAt,value
2024-05-09T00:01:43.915Z,12.20
2024-05-09T00:04:30.338Z,12.20
2024-05-09T00:07:16.963Z,12.20
2024-05-09T00:10:05.531Z,12.20
2024-05-09T00:12:53.934Z,12.10
2024-05-09T00:15:40.708Z,12.20
2024-05-09T00:18:27.493Z,12.10
2024-05-09T00:21:14.386Z,12.10
2024-05-09T00:24:00.944Z,12.20
2024-05-09T00:26:47.367Z,12.10
2024-05-09T00:29:34.227Z,12.10
2024-05-09T00:32:21.065Z,12.10
2024-05-09T00:35:07.904Z,12.10
2024-05-09T00:37:54.575Z,12.10
2024-05-09T00:40:43.110Z,12.10
2024-05-09T00:43:30.046Z,12.10
2024-05-09T00:46:17.047Z,12.10
2024-05-09T00:49:03.667Z,12.10
2024-05-09T00:51:51.116Z,12.10
2024-05-09T00:54:38.014Z,12.10
2024-05-09T00:57:25.716Z,12.10
2024-05-09T01:00:22.469Z,12.00
2024-05-09T01:03:17.888Z,12.00
2024-05-09T01:06:04.760Z,12.00
2024-05-09T01:08:51.826Z,12.00
2024-05-09T01:11:40.307Z,11.90
2024-05-09T01:14:26.689Z,11.90
2024-05-09T01:17:13.971Z,11.90
2024-05-09T01:20:00.700Z,11.90
2024-05-09T01:22:48.004Z,12.00
2024-05-09T01:25:35.497Z,11.90
2024-05-09T01:28:21.996Z,11.90
2024-05-09T01:31:08.776Z,11.90
2024-05-09T01:33:55.321Z,11.90
2024-05-09T01:36:42.128Z,11.90
2024-05-09T01:39:28.677Z,11.90
2024-05-09T01:42:17.227Z,11.90
2024-05-09T01:45:03.966Z,11.90
2024-05-09T01:47:50.618Z,11.90
2024-05-09T01:50:40.831Z,12.00
2024-05-09T01:53:29.326Z,11.90
2024-05-09T01:56:15.886Z,11.90
2024-05-09T01:59:02.138Z,11.90
2024-05-09T02:01:56.658Z,11.90
2024-05-09T02:04:47.850Z,11.90
2024-05-09T02:07:35.708Z,12.00
2024-05-09T02:10:26.548Z,12.00
2024-05-09T02:13:19.041Z,11.90
2024-05-09T02:16:09.379Z,12.00
2024-05-09T02:18:56.180Z,12.00
2024-05-09T02:21:42.611Z,12.00
2024-05-09T02:24:28.876Z,12.00
2024-05-09T02:27:15.590Z,12.00
2024-05-09T02:30:02.830Z,12.00
2024-05-09T02:32:50.675Z,12.00
2024-05-09T02:35:37.526Z,11.90
2024-05-09T02:38:24.729Z,11.90
2024-05-09T02:41:11.242Z,11.90
2024-05-09T02:43:57.788Z,11.90
2024-05-09T02:46:44.321Z,11.90
2024-05-09T02:49:31.110Z,11.90
2024-05-09T02:52:18.711Z,11.90
2024-05-09T02:55:05.713Z,11.90
2024-05-09T02:57:52.275Z,11.90
2024-05-09T03:00:41.810Z,11.90
2024-05-09T03:03:29.378Z,11.90
2024-05-09T03:06:15.995Z,12.00
2024-05-09T03:09:04.860Z,12.00
2024-05-09T03:11:52.277Z,12.00
2024-05-09T03:14:39.186Z,11.90
2024-05-09T03:17:26.015Z,11.90
2024-05-09T03:20:20.495Z,11.90
2024-05-09T03:23:10.850Z,11.90
2024-05-09T03:25:57.453Z,11.90
2024-05-09T03:28:44.753Z,11.90
2024-05-09T03:31:31.516Z,11.90
2024-05-09T03:34:18.168Z,11.90
2024-05-09T03:37:04.655Z,11.90
2024-05-09T03:39:51.274Z,11.90
2024-05-09T03:42:41.673Z,11.90
2024-05-09T03:45:28.042Z,11.90
2024-05-09T03:48:14.838Z,11.90
2024-05-09T03:51:01.428Z,11.90
2024-05-09T03:53:47.669Z,11.80
2024-05-09T03:56:34.292Z,11.80
2024-05-09T03:59:20.500Z,11.80
2024-05-09T04:02:07.136Z,11.80
2024-05-09T04:04:53.755Z,11.70
2024-05-09T04:07:43.866Z,11.70
2024-05-09T04:10:33.665Z,11.80
2024-05-09T04:13:21.593Z,11.80
2024-05-09T04:16:10.544Z,11.80
2024-05-09T04:18:57.067Z,11.80
2024-05-09T04:21:43.593Z,11.80
2024-05-09T04:24:30.305Z,11.80
2024-05-09T04:27:17.121Z,11.90
2024-05-09T04:30:06.156Z,11.90
2024-05-09T04:32:54.612Z,11.90
2024-05-09T04:35:45.043Z,11.90
2024-05-09T04:38:32.251Z,11.90
2024-05-09T04:41:19.819Z,12.00
2024-05-09T04:44:06.290Z,12.00
2024-05-09T04:46:52.814Z,11.90
2024-05-09T04:49:39.277Z,12.00
2024-05-09T04:52:25.741Z,11.90
2024-05-09T04:55:12.111Z,11.90
2024-05-09T04:57:58.702Z,12.00
2024-05-09T05:00:46.102Z,12.00
2024-05-09T05:03:32.958Z,12.00
2024-05-09T05:06:20.352Z,12.00
2024-05-09T05:09:07.079Z,12.00
2024-05-09T05:11:53.902Z,12.00
2024-05-09T05:14:40.198Z,12.00
2024-05-09T05:17:27.006Z,12.10
2024-05-09T05:20:17.880Z,12.10
2024-05-09T05:23:13.556Z,12.10
2024-05-09T05:26:00.589Z,12.10
2024-05-09T05:28:47.551Z,12.10
2024-05-09T05:31:34.044Z,12.10
2024-05-09T05:34:20.567Z,12.10
2024-05-09T05:37:07.411Z,12.10
2024-05-09T05:39:53.876Z,12.20
2024-05-09T05:42:41.265Z,12.20
2024-05-09T05:45:27.816Z,12.30
2024-05-09T05:48:18.227Z,12.30
2024-05-09T05:51:07.807Z,12.40
2024-05-09T05:53:55.256Z,12.40
2024-05-09T05:56:41.974Z,12.40
2024-05-09T05:59:29.473Z,12.30
2024-05-09T06:02:16.383Z,12.30
2024-05-09T06:05:03.348Z,12.40
2024-05-09T06:07:50.256Z,12.40
2024-05-09T06:10:39.773Z,12.50
2024-05-09T06:13:27.698Z,12.60
2024-05-09T06:16:14.296Z,12.60
2024-05-09T06:19:00.922Z,12.70
2024-05-09T06:21:47.141Z,12.80
2024-05-09T06:24:33.790Z,12.80
2024-05-09T06:27:20.344Z,12.90
2024-05-09T06:30:09.962Z,13.00
2024-05-09T06:32:59.132Z,13.00
2024-05-09T06:35:46.398Z,13.10
2024-05-09T06:38:33.625Z,13.20
2024-05-09T06:41:20.460Z,13.40
2024-05-09T06:44:07.044Z,13.50
2024-05-09T06:46:55.770Z,13.50
2024-05-09T06:49:44.849Z,13.60
2024-05-09T06:52:31.292Z,13.70
2024-05-09T06:55:17.539Z,13.70
2024-05-09T06:58:06.524Z,13.80
2024-05-09T07:00:53.656Z,13.80
2024-05-09T07:03:41.386Z,13.80
2024-05-09T07:06:27.955Z,13.90
2024-05-09T07:09:14.768Z,13.90
2024-05-09T07:12:01.742Z,14.00
2024-05-09T07:14:48.430Z,14.00
2024-05-09T07:17:35.234Z,14.10
2024-05-09T07:20:31.695Z,14.00
2024-05-09T07:23:21.165Z,14.10
2024-05-09T07:26:07.924Z,14.20
2024-05-09T07:28:54.551Z,14.20
2024-05-09T07:31:41.054Z,14.30
2024-05-09T07:34:27.630Z,14.40
2024-05-09T07:37:14.045Z,14.60
2024-05-09T07:40:00.378Z,14.60
2024-05-09T07:42:47.003Z,14.70
2024-05-09T07:54:04.736Z,14.50
2024-05-09T07:56:52.306Z,14.60
2024-05-09T07:59:39.543Z,14.60
2024-05-09T08:02:26.223Z,14.70
2024-05-09T08:05:13.103Z,14.80
2024-05-09T08:07:59.656Z,14.90
2024-05-09T08:10:46.690Z,14.80
2024-05-09T08:13:33.297Z,14.80
2024-05-09T08:16:19.923Z,14.90
2024-05-09T08:19:08.264Z,15.10
2024-05-09T08:21:55.043Z,15.30
2024-05-09T08:24:42.948Z,15.60
2024-05-09T08:27:29.699Z,15.80
2024-05-09T08:30:22.075Z,15.90
2024-05-09T08:33:16.220Z,15.90
2024-05-09T08:36:02.899Z,15.90
2024-05-09T08:38:49.199Z,16.00
2024-05-09T08:41:37.565Z,16.00
2024-05-09T08:44:23.949Z,15.80
2024-05-09T08:47:10.972Z,15.70
2024-05-09T08:49:59.159Z,15.70
2024-05-09T08:52:46.015Z,15.70
2024-05-09T08:55:33.003Z,15.60
2024-05-09T08:58:20.171Z,15.70
2024-05-09T09:01:08.258Z,15.80
2024-05-09T09:03:55.772Z,15.70
2024-05-09T09:06:44.499Z,15.70
2024-05-09T09:09:32.601Z,15.80
2024-05-09T09:12:18.852Z,15.80
2024-05-09T09:15:05.944Z,15.80
2024-05-09T09:18:00.576Z,15.90
2024-05-09T09:20:47.298Z,16.00
2024-05-09T09:23:33.869Z,16.00
2024-05-09T09:26:20.550Z,16.10
2024-05-09T09:29:07.067Z,16.40
2024-05-09T09:32:07.479Z,16.70
2024-05-09T09:34:53.881Z,17.00
2024-05-09T09:37:40.611Z,17.40
2024-05-09T09:40:32.297Z,17.80
2024-05-09T09:43:22.394Z,18.00
2024-05-09T09:46:12.793Z,18.10
2024-05-09T09:49:00.194Z,17.90
2024-05-09T09:51:48.071Z,17.70
2024-05-09T09:54:34.881Z,17.50
2024-05-09T09:57:22.948Z,17.50
2024-05-09T10:00:11.975Z,17.40
2024-05-09T10:03:03.998Z,17.40
2024-05-09T10:05:51.575Z,17.30
2024-05-09T10:08:38.446Z,17.10
2024-05-09T10:11:29.782Z,17.10
2024-05-09T10:14:21.274Z,17.10
2024-05-09T10:17:08.198Z,16.90
2024-05-09T10:20:14.799Z,16.90
2024-05-09T10:23:26.488Z,16.80
2024-05-09T10:26:12.886Z,16.80
2024-05-09T10:28:59.651Z,17.00
2024-05-09T10:31:48.135Z,17.00
2024-05-09T10:34:35.165Z,17.00
2024-05-09T10:37:22.694Z,16.90
2024-05-09T10:40:23.068Z,16.80
2024-05-09T10:43:20.010Z,16.90
2024-05-09T10:46:07.700Z,17.00
2024-05-09T10:48:54.592Z,17.10
2024-05-09T10:51:44.478Z,17.10
2024-05-09T10:54:38.071Z,17.20
2024-05-09T10:57:24.779Z,17.30
2024-05-09T11:00:19.442Z,17.40
2024-05-09T11:03:14.039Z,17.50
2024-05-09T11:06:01.310Z,17.60
2024-05-09T11:08:48.597Z,17.70
2024-05-09T11:11:35.534Z,17.80
2024-05-09T11:14:21.989Z,17.80
2024-05-09T11:17:09.005Z,17.80
2024-05-09T11:19:55.588Z,17.70
2024-05-09T11:22:42.283Z,17.60
2024-05-09T11:25:30.544Z,17.60
2024-05-09T11:28:20.712Z,17.50
2024-05-09T11:31:09.783Z,17.50
2024-05-09T11:33:57.361Z,17.50
2024-05-09T11:36:43.753Z,17.50
2024-05-09T11:39:30.757Z,17.50
2024-05-09T11:42:17.588Z,17.50
2024-05-09T11:45:04.493Z,17.50
2024-05-09T11:47:51.382Z,17.70
2024-05-09T11:50:37.662Z,17.80
2024-05-09T11:53:24.560Z,17.90
2024-05-09T11:56:12.371Z,18.00
2024-05-09T11:58:59.036Z,18.00
2024-05-09T12:01:45.818Z,18.00
2024-05-09T12:04:32.683Z,18.10
2024-05-09T12:07:18.891Z,18.20
2024-05-09T12:10:09.439Z,18.40
2024-05-09T12:13:00.272Z,18.50
2024-05-09T12:15:47.207Z,18.50
2024-05-09T12:18:34.215Z,18.60
2024-05-09T12:21:20.724Z,18.60
2024-05-09T12:24:07.325Z,18.70
2024-05-09T12:26:54.407Z,18.80
2024-05-09T12:29:40.907Z,18.90
2024-05-09T12:32:27.557Z,19.00
2024-05-09T12:35:14.284Z,19.10
2024-05-09T12:38:00.905Z,19.20
2024-05-09T12:40:47.759Z,19.20
2024-05-09T12:43:34.477Z,19.20
2024-05-09T12:46:21.243Z,19.20
2024-05-09T12:49:08.066Z,19.10
2024-05-09T12:51:54.751Z,18.90
2024-05-09T12:54:41.476Z,18.90
2024-05-09T12:57:28.224Z,19.20
2024-05-09T13:00:23.495Z,19.20
2024-05-09T13:03:15.341Z,19.20
2024-05-09T13:06:03.536Z,19.10
2024-05-09T13:08:50.327Z,19.20
2024-05-09T13:11:37.064Z,19.30
2024-05-09T13:14:23.702Z,19.40
2024-05-09T13:17:10.531Z,19.40
2024-05-09T13:19:57.180Z,19.50
2024-05-09T13:22:44.529Z,19.60
2024-05-09T13:25:31.056Z,19.50
2024-05-09T13:28:17.718Z,19.40
2024-05-09T13:31:04.490Z,19.40
2024-05-09T13:33:51.073Z,19.50
2024-05-09T13:36:37.560Z,19.60
2024-05-09T13:39:24.152Z,19.50
2024-05-09T13:42:10.982Z,19.40
2024-05-09T13:44:57.674Z,19.40
2024-05-09T13:47:44.597Z,19.40
2024-05-09T13:50:35.115Z,19.30
2024-05-09T13:53:25.215Z,19.20
2024-05-09T13:56:12.800Z,19.30
2024-05-09T13:58:59.659Z,19.40
2024-05-09T14:01:46.378Z,19.50
2024-05-09T14:04:33.317Z,19.50
2024-05-09T14:07:19.914Z,19.50
2024-05-09T14:10:16.090Z,19.30
2024-05-09T14:13:10.277Z,19.20
2024-05-09T14:15:56.856Z,19.00
2024-05-09T14:18:43.395Z,18.90
2024-05-09T14:21:30.439Z,18.90
2024-05-09T14:24:16.933Z,18.90
2024-05-09T14:27:04.010Z,19.00
2024-05-09T14:29:50.591Z,19.10
2024-05-09T14:32:37.439Z,19.00
2024-05-09T14:35:23.570Z,18.90
2024-05-09T14:38:10.705Z,18.90
2024-05-09T14:40:57.264Z,18.80
2024-05-09T14:43:43.945Z,18.80
2024-05-09T14:46:30.802Z,18.70
2024-05-09T14:49:17.562Z,18.70
2024-05-09T14:52:04.762Z,18.80
2024-05-09T14:55:00.010Z,18.80
2024-05-09T14:57:47.968Z,18.80
2024-05-09T15:00:41.729Z,18.80
2024-05-09T15:03:31.515Z,18.80
2024-05-09T15:06:19.008Z,18.70
2024-05-09T15:09:06.643Z,18.80
2024-05-09T15:11:54.114Z,18.80
2024-05-09T15:14:40.715Z,18.90
2024-05-09T15:17:27.671Z,19.00
2024-05-09T15:20:17.326Z,19.00
2024-05-09T15:23:07.442Z,19.00
2024-05-09T15:25:54.121Z,18.80
2024-05-09T15:28:41.436Z,18.70
2024-05-09T15:31:29.409Z,18.60
2024-05-09T15:34:15.648Z,18.40
2024-05-09T15:37:04.022Z,18.20
2024-05-09T15:39:50.682Z,18.10
2024-05-09T15:42:38.749Z,18.10
2024-05-09T15:45:29.029Z,18.00
2024-05-09T15:48:15.952Z,17.90
2024-05-09T15:51:02.660Z,17.90
2024-05-09T15:53:49.220Z,17.90
2024-05-09T15:56:36.206Z,17.90
2024-05-09T15:59:22.538Z,17.90
2024-05-09T16:02:11.558Z,17.90
2024-05-09T16:04:58.433Z,17.90
2024-05-09T16:07:45.102Z,17.90
2024-05-09T16:10:33.532Z,18.00
2024-05-09T16:13:21.607Z,18.00
2024-05-09T16:16:08.423Z,18.10
2024-05-09T16:18:55.345Z,18.10
2024-05-09T16:21:42.009Z,18.10
2024-05-09T16:24:28.624Z,18.10
2024-05-09T16:27:15.415Z,18.10
2024-05-09T16:30:05.441Z,18.10
2024-05-09T16:32:54.049Z,18.00
2024-05-09T16:35:41.010Z,18.10
2024-05-09T16:38:27.687Z,18.10
2024-05-09T16:41:15.559Z,18.00
2024-05-09T16:44:03.231Z,18.10
2024-05-09T16:46:49.795Z,18.10
2024-05-09T16:49:36.423Z,18.20
2024-05-09T16:52:23.071Z,18.30
2024-05-09T16:55:09.972Z,18.40
2024-05-09T16:57:57.539Z,18.30
2024-05-09T17:00:44.636Z,18.40
2024-05-09T17:03:31.421Z,18.40
2024-05-09T17:06:18.515Z,18.40
2024-05-09T17:09:11.309Z,18.40
2024-05-09T17:11:58.952Z,18.40
2024-05-09T17:14:45.331Z,18.40
2024-05-09T17:17:32.346Z,18.40
2024-05-09T17:20:29.283Z,18.40
2024-05-09T17:23:20.555Z,18.30
2024-05-09T17:26:07.606Z,18.20
2024-05-09T17:28:54.025Z,18.10
2024-05-09T17:31:40.883Z,18.00
2024-05-09T17:34:27.849Z,18.00
2024-05-09T17:37:14.553Z,17.90
2024-05-09T17:40:01.145Z,17.90
2024-05-09T17:42:47.975Z,17.80
2024-05-09T17:45:34.697Z,17.70
2024-05-09T17:48:21.779Z,17.70
2024-05-09T17:51:08.520Z,17.60
2024-05-09T17:53:55.112Z,17.50
2024-05-09T17:56:42.001Z,17.50
2024-05-09T17:59:29.390Z,17.40
2024-05-09T18:02:15.990Z,17.40
2024-05-09T18:05:03.638Z,17.30
2024-05-09T18:07:50.629Z,17.20
2024-05-09T18:10:39.772Z,17.20
2024-05-09T18:13:27.182Z,17.10
2024-05-09T18:16:14.666Z,17.00
2024-05-09T18:19:01.586Z,16.90
2024-05-09T18:21:49.362Z,16.90
2024-05-09T18:24:35.959Z,16.90
2024-05-09T18:27:23.559Z,16.80
2024-05-09T18:30:24.068Z,16.70
2024-05-09T18:33:15.321Z,16.60
2024-05-09T18:36:02.383Z,16.50
2024-05-09T18:38:51.535Z,16.40
2024-05-09T18:41:37.969Z,16.30
2024-05-09T18:44:24.575Z,16.20
2024-05-09T18:47:11.483Z,16.10
2024-05-09T18:49:58.171Z,16.10
2024-05-09T18:52:44.421Z,16.00
2024-05-09T18:55:31.193Z,15.90
2024-05-09T18:58:18.100Z,15.80
2024-05-09T19:01:04.939Z,15.70
2024-05-09T19:03:53.419Z,15.60
2024-05-09T19:06:40.711Z,15.50
2024-05-09T19:09:27.051Z,15.40
2024-05-09T19:12:13.521Z,15.40
2024-05-09T19:15:00.135Z,15.20
2024-05-09T19:17:48.254Z,15.20
2024-05-09T19:20:36.436Z,15.20
2024-05-09T19:23:24.135Z,15.10
2024-05-09T19:26:11.032Z,15.00
2024-05-09T19:28:57.688Z,14.90
2024-05-09T19:31:44.348Z,14.90
2024-05-09T19:34:30.819Z,14.80
2024-05-09T19:37:17.542Z,14.80
2024-05-09T19:40:06.878Z,14.80
2024-05-09T19:42:55.116Z,14.80
2024-05-09T19:45:42.041Z,14.60
2024-05-09T19:48:28.710Z,14.30
2024-05-09T19:51:15.300Z,14.00
2024-05-09T19:54:02.084Z,13.80
2024-05-09T19:56:48.703Z,13.70
2024-05-09T19:59:35.078Z,13.50
2024-05-09T20:02:21.769Z,13.40
2024-05-09T20:05:08.503Z,13.50
2024-05-09T20:07:55.010Z,13.50
2024-05-09T20:10:41.838Z,13.60
2024-05-09T20:13:28.368Z,13.60
2024-05-09T20:16:15.139Z,13.60
2024-05-09T20:19:01.755Z,13.60
2024-05-09T20:21:48.507Z,13.60
2024-05-09T20:24:35.377Z,13.50
2024-05-09T20:27:22.110Z,13.50
2024-05-09T20:30:12.238Z,13.40
2024-05-09T20:33:09.695Z,13.40
2024-05-09T20:36:01.634Z,13.20
2024-05-09T20:38:48.311Z,12.90
2024-05-09T20:41:36.957Z,12.70
2024-05-09T20:44:23.463Z,12.70
2024-05-09T20:47:10.424Z,12.70
2024-05-09T20:49:56.783Z,12.80
2024-05-09T20:52:43.330Z,12.80
2024-05-09T20:55:30.155Z,12.60
2024-05-09T20:58:17.015Z,12.30
2024-05-09T21:01:03.939Z,12.10
2024-05-09T21:03:50.947Z,12.00
2024-05-09T21:06:37.433Z,12.00
2024-05-09T21:09:25.793Z,12.00
2024-05-09T21:12:12.558Z,12.10
2024-05-09T21:14:59.252Z,12.10
2024-05-09T21:17:45.813Z,12.10
2024-05-09T21:20:34.701Z,12.20
2024-05-09T21:23:21.656Z,12.20
2024-05-09T21:26:08.380Z,12.20
2024-05-09T21:28:54.925Z,12.10
2024-05-09T21:31:41.716Z,12.10
2024-05-09T21:34:29.895Z,12.20
2024-05-09T21:37:16.416Z,12.10
2024-05-09T21:40:09.553Z,12.10
2024-05-09T21:43:00.434Z,12.10
2024-05-09T21:45:47.177Z,11.80
2024-05-09T21:48:33.849Z,11.50
2024-05-09T21:51:20.641Z,11.40
2024-05-09T21:54:07.582Z,11.40
2024-05-09T21:56:53.953Z,11.50
2024-05-09T21:59:41.998Z,11.50
2024-05-09T22:02:29.092Z,11.60
2024-05-09T22:05:15.877Z,11.60
2024-05-09T22:08:03.136Z,11.50
2024-05-09T22:10:51.177Z,11.60
2024-05-09T22:13:38.139Z,11.70
2024-05-09T22:16:24.687Z,11.60
2024-05-09T22:19:11.254Z,11.50
2024-05-09T22:21:57.604Z,11.20
2024-05-09T22:24:44.249Z,10.90
2024-05-09T22:27:30.874Z,10.80
2024-05-09T22:30:23.818Z,10.60
2024-05-09T22:33:15.164Z,10.40
2024-05-09T22:36:01.900Z,10.40
2024-05-09T22:38:48.410Z,10.30
2024-05-09T22:41:35.257Z,10.40
2024-05-09T22:44:21.816Z,10.70
2024-05-09T22:47:08.122Z,10.90
2024-05-09T22:49:54.567Z,11.00
2024-05-09T22:52:41.091Z,11.10
2024-05-09T22:55:27.653Z,11.10
2024-05-09T22:58:14.371Z,10.90
2024-05-09T23:01:01.037Z,10.90
2024-05-09T23:03:48.182Z,10.70
2024-05-09T23:06:34.955Z,10.50
2024-05-09T23:09:21.820Z,10.30
2024-05-09T23:12:08.467Z,10.10
2024-05-09T23:14:55.202Z,10.20
2024-05-09T23:17:41.988Z,10.40
2024-05-09T23:20:36.356Z,10.50
2024-05-09T23:23:25.619Z,10.70
2024-05-09T23:26:12.204Z,10.80
2024-05-09T23:28:58.838Z,10.80
2024-05-09T23:31:45.255Z,10.80
2024-05-09T23:34:31.974Z,10.90
2024-05-09T23:37:18.327Z,10.80
2024-05-09T23:40:07.258Z,10.60
2024-05-09T23:42:55.841Z,10.40
2024-05-09T23:45:43.245Z,10.10
2024-05-09T23:48:29.781Z,9.90
2024-05-09T23:51:16.477Z,9.80
2024-05-09T23:54:03.299Z,9.90
2024-05-09T23:56:50.077Z,10.10
2024-05-09T23:59:36.356Z,10.20
